createdAt,value
2023-02-19T00:01:43.796Z,2.15
2023-02-19T00:04:35.617Z,2.15
2023-02-19T00:07:56.346Z,2.22
2023-02-19T00:10:45.328Z,2.50
2023-02-19T00:35:51.579Z,1.50
2023-02-19T00:38:32.091Z,2.25
2023-02-19T00:44:54.936Z,1.57
2023-02-19T00:47:28.464Z,1.48
2023-02-19T00:51:05.727Z,2.00
2023-02-19T00:53:42.064Z,2.00
2023-02-19T00:56:13.487Z,2.75
2023-02-19T00:59:22.932Z,2.10
2023-02-19T01:05:01.294Z,2.38
2023-02-19T01:12:26.927Z,2.10
2023-02-19T01:15:16.482Z,2.03
2023-02-19T01:18:00.041Z,1.77
2023-02-19T01:27:48.169Z,1.40
2023-02-19T01:30:22.264Z,2.23
2023-02-19T01:34:19.464Z,2.88
2023-02-19T01:39:52.903Z,1.55
2023-02-19T01:42:22.655Z,2.50
2023-02-19T01:52:32.500Z,2.20
2023-02-19T01:55:18.404Z,1.98
2023-02-19T01:57:57.618Z,2.13
2023-02-19T02:01:58.358Z,1.60
2023-02-19T02:04:46.730Z,2.05
2023-02-19T02:08:15.526Z,1.95
2023-02-19T02:19:49.331Z,1.90
2023-02-19T02:23:49.817Z,1.58
2023-02-19T02:26:46.146Z,2.03
2023-02-19T02:37:18.786Z,1.77
2023-02-19T02:45:59.534Z,1.48
2023-02-19T02:56:56.555Z,1.50
2023-02-19T02:59:54.879Z,1.52
2023-02-19T03:10:13.325Z,1.30
2023-02-19T03:17:34.818Z,2.63
2023-02-19T03:20:07.621Z,1.25
2023-02-19T03:22:38.884Z,1.38
2023-02-19T03:25:53.778Z,2.13
2023-02-19T03:28:46.404Z,1.60
2023-02-19T03:31:19.011Z,1.77
2023-02-19T03:33:57.749Z,1.67
2023-02-19T03:36:31.705Z,1.70
2023-02-19T03:39:05.411Z,1.50
2023-02-19T03:41:39.300Z,1.58
2023-02-19T03:44:31.283Z,1.48
2023-02-19T03:47:59.239Z,1.85
2023-02-19T03:58:41.043Z,1.25
2023-02-19T04:01:41.161Z,1.70
2023-02-19T04:04:19.227Z,1.33
2023-02-19T04:06:58.487Z,1.08
2023-02-19T04:09:49.274Z,0.97
2023-02-19T04:12:23.158Z,1.20
2023-02-19T04:15:12.271Z,1.15
2023-02-19T04:18:18.444Z,1.10
2023-02-19T04:20:54.818Z,1.67
2023-02-19T04:23:28.704Z,1.00
2023-02-19T04:26:03.371Z,1.20
2023-02-19T04:28:43.590Z,0.80
2023-02-19T04:31:15.972Z,0.80
2023-02-19T04:36:52.827Z,0.70
2023-02-19T04:39:19.671Z,1.17
2023-02-19T04:45:10.011Z,0.82
2023-02-19T04:47:38.790Z,0.70
2023-02-19T04:50:33.223Z,0.97
2023-02-19T04:53:08.508Z,0.90
2023-02-19T04:58:55.087Z,1.13
2023-02-19T05:01:22.781Z,1.30
2023-02-19T05:03:52.818Z,1.40
2023-02-19T05:06:22.672Z,1.40
2023-02-19T05:08:52.028Z,1.30
2023-02-19T05:11:20.296Z,0.70
2023-02-19T05:13:46.935Z,1.25
2023-02-19T05:16:16.473Z,0.70
2023-02-19T05:18:45.000Z,0.52
2023-02-19T05:21:12.895Z,1.15
2023-02-19T05:23:40.368Z,1.00
2023-02-19T05:26:10.142Z,0.73
2023-02-19T05:28:37.680Z,1.33
2023-02-19T05:31:09.831Z,1.35
2023-02-19T05:33:54.752Z,1.10
2023-02-19T05:36:27.871Z,0.90
2023-02-19T05:39:10.476Z,0.60
2023-02-19T05:41:37.301Z,0.70
2023-02-19T05:44:05.423Z,0.60
2023-02-19T05:46:34.714Z,0.80
2023-02-19T05:49:04.356Z,1.02
2023-02-19T05:51:30.969Z,0.93
2023-02-19T05:53:58.469Z,1.20
2023-02-19T05:56:25.352Z,0.90
2023-02-19T05:58:53.460Z,1.13
2023-02-19T06:01:21.941Z,0.60
2023-02-19T06:03:48.724Z,0.65
2023-02-19T06:06:21.379Z,1.10
2023-02-19T06:08:51.393Z,0.50
2023-02-19T06:11:32.633Z,0.77
2023-02-19T06:14:02.957Z,0.77
2023-02-19T06:16:31.036Z,0.50
2023-02-19T06:18:59.034Z,0.90
2023-02-19T06:21:29.786Z,0.80
2023-02-19T06:23:56.490Z,0.98
2023-02-19T06:26:45.014Z,1.05
2023-02-19T06:29:16.237Z,0.93
2023-02-19T06:31:46.497Z,1.10
2023-02-19T06:34:26.786Z,1.25
2023-02-19T06:36:57.878Z,1.00
2023-02-19T06:47:13.792Z,0.63
2023-02-19T06:50:27.339Z,0.60
2023-02-19T06:53:07.674Z,0.70
2023-02-19T06:55:36.144Z,0.88
2023-02-19T06:58:13.657Z,1.02
2023-02-19T07:03:48.423Z,0.88
2023-02-19T07:10:00.051Z,0.70
2023-02-19T07:13:08.070Z,1.00
2023-02-19T07:15:45.508Z,0.70
2023-02-19T07:19:24.697Z,1.00
2023-02-19T07:22:04.368Z,0.88
2023-02-19T07:24:43.502Z,1.08
2023-02-19T08:02:46.621Z,0.40
2023-02-19T08:05:23.555Z,0.60
2023-02-19T08:07:51.470Z,0.43
2023-02-19T08:10:36.564Z,0.68
2023-02-19T08:13:25.380Z,0.60
2023-02-19T08:16:21.774Z,0.55
2023-02-19T08:18:57.966Z,0.43
2023-02-19T08:21:25.168Z,0.47
2023-02-19T08:23:54.494Z,0.77
2023-02-19T08:26:23.892Z,0.75
2023-02-19T08:28:50.967Z,0.60
2023-02-19T08:31:17.920Z,0.60
2023-02-19T08:33:44.582Z,0.57
2023-02-19T08:36:16.577Z,0.40
2023-02-19T08:38:57.420Z,0.43
2023-02-19T08:41:38.609Z,0.60
2023-02-19T08:45:50.338Z,1.02
2023-02-19T08:47:25.306Z,0.67
2023-02-19T08:50:16.046Z,0.77
2023-02-19T08:53:01.828Z,0.70
2023-02-19T08:55:28.882Z,1.02
2023-02-19T09:04:20.491Z,0.73
2023-02-19T09:06:56.272Z,0.88
2023-02-19T09:12:09.836Z,0.82
2023-02-19T09:14:52.293Z,0.90
2023-02-19T09:17:42.332Z,0.90
2023-02-19T09:20:34.620Z,0.73
2023-02-19T09:23:01.231Z,0.98
2023-02-19T09:25:43.260Z,1.20
2023-02-19T09:29:09.197Z,1.03
2023-02-19T09:33:09.436Z,1.40
2023-02-19T09:35:40.783Z,1.02
2023-02-19T09:38:18.472Z,1.08
2023-02-19T09:40:53.879Z,0.90
2023-02-19T09:44:00.613Z,1.03
2023-02-19T09:49:54.410Z,0.77
2023-02-19T09:52:45.511Z,0.95
2023-02-19T09:55:44.900Z,0.80
2023-02-19T09:58:35.166Z,1.70
2023-02-19T10:05:15.370Z,0.47
2023-02-19T10:07:52.851Z,0.57
2023-02-19T10:10:32.215Z,0.60
2023-02-19T10:13:46.945Z,0.50
2023-02-19T10:16:40.744Z,0.77
2023-02-19T10:19:28.520Z,0.50
2023-02-19T10:21:57.260Z,0.50
2023-02-19T10:24:27.457Z,0.60
2023-02-19T10:27:00.628Z,0.40
2023-02-19T10:29:29.478Z,0.43
2023-02-19T10:32:27.070Z,0.68
2023-02-19T10:35:32.974Z,0.50
2023-02-19T10:38:25.487Z,0.68
2023-02-19T10:41:15.443Z,0.30
2023-02-19T11:06:54.003Z,0.77
2023-02-19T11:09:35.066Z,1.02
2023-02-19T11:12:04.338Z,0.50
2023-02-19T11:14:35.090Z,0.60
2023-02-19T11:17:10.865Z,1.00
2023-02-19T11:19:42.735Z,0.70
2023-02-19T11:22:47.653Z,0.50
2023-02-19T11:25:14.624Z,0.57
2023-02-19T11:28:17.346Z,0.80
2023-02-19T11:30:55.181Z,0.60
2023-02-19T11:33:53.319Z,0.50
2023-02-19T11:39:48.785Z,0.65
2023-02-19T11:43:08.818Z,0.50
2023-02-19T11:45:48.862Z,0.40
2023-02-19T11:48:29.600Z,0.60
2023-02-19T11:55:22.199Z,0.75
2023-02-19T11:58:04.709Z,0.77
2023-02-19T12:00:39.248Z,0.60
2023-02-19T12:03:47.644Z,0.47
2023-02-19T12:06:33.199Z,0.75
2023-02-19T12:12:50.777Z,0.60
2023-02-19T12:15:36.226Z,0.60
2023-02-19T12:18:20.801Z,1.23
2023-02-19T12:21:17.110Z,1.13
2023-02-19T12:23:55.701Z,1.05
2023-02-19T12:26:29.191Z,2.17
2023-02-19T12:29:11.210Z,0.90
2023-02-19T12:32:11.436Z,1.00
2023-02-19T12:34:59.853Z,1.27
2023-02-19T12:37:56.199Z,1.30
2023-02-19T12:40:44.644Z,0.80
2023-02-19T12:43:20.239Z,0.73
2023-02-19T12:46:03.311Z,0.70
2023-02-19T12:48:40.438Z,0.90
2023-02-19T12:51:22.591Z,1.00
2023-02-19T12:54:25.830Z,0.97
2023-02-19T12:57:15.650Z,0.80
2023-02-19T13:03:49.623Z,0.63
2023-02-19T13:06:29.628Z,0.70
2023-02-19T13:09:07.356Z,1.00
2023-02-19T13:12:02.319Z,0.60
2023-02-19T13:14:39.279Z,0.80
2023-02-19T13:18:12.886Z,0.40
2023-02-19T13:21:02.342Z,0.60
2023-02-19T13:23:59.805Z,0.40
2023-02-19T13:31:15.607Z,0.47
2023-02-19T13:34:58.531Z,0.60
2023-02-19T15:34:36.785Z,0.70
2023-02-19T15:37:39.358Z,0.77
2023-02-19T15:40:52.982Z,0.90
2023-02-19T15:43:52.651Z,1.00
2023-02-19T15:47:16.830Z,0.82
2023-02-19T15:54:40.612Z,1.55
2023-02-19T16:01:45.713Z,1.35
2023-02-19T16:40:21.948Z,1.10
2023-02-19T16:43:08.632Z,0.73
2023-02-19T17:48:33.733Z,1.05
2023-02-19T17:56:39.946Z,0.93
2023-02-19T18:01:55.753Z,1.42
2023-02-19T18:04:22.718Z,4.50
2023-02-19T18:06:50.630Z,2.10
2023-02-19T18:09:19.758Z,1.00
2023-02-19T19:02:17.973Z,1.90
2023-02-19T19:04:51.991Z,1.73
2023-02-19T22:03:15.271Z,2.30
2023-02-19T22:06:27.447Z,1.65
2023-02-19T22:31:07.886Z,2.10
